sensor_id;sensor_type;location;lat;lon;timestamp;pressure;altitude;pressure_sealevel;temperature;humidity
75359;BME280;64046;51.978;5.934;2023-04-25T00:00:09;100889.09;;;11.74;97.98
75359;BME280;64046;51.978;5.934;2023-04-25T00:02:39;100897.91;;;11.73;97.79
75359;BME280;64046;51.978;5.934;2023-04-25T00:05:08;100898.84;;;11.72;97.51
75359;BME280;64046;51.978;5.934;2023-04-25T00:07:38;100892.94;;;11.67;97.25
75359;BME280;64046;51.978;5.934;2023-04-25T00:10:11;100899.16;;;11.84;96.66
75359;BME280;64046;51.978;5.934;2023-04-25T00:12:41;100901.69;;;11.68;96.86
75359;BME280;64046;51.978;5.934;2023-04-25T00:15:11;100905.63;;;11.76;96.32
75359;BME280;64046;51.978;5.934;2023-04-25T00:17:40;100920.41;;;11.60;96.02
75359;BME280;64046;51.978;5.934;2023-04-25T00:20:12;100916.56;;;11.67;95.97
75359;BME280;64046;51.978;5.934;2023-04-25T00:22:41;100923.94;;;11.59;95.67
75359;BME280;64046;51.978;5.934;2023-04-25T00:25:13;100923.94;;;11.78;95.03
75359;BME280;64046;51.978;5.934;2023-04-25T00:27:42;100932.69;;;11.59;94.90
75359;BME280;64046;51.978;5.934;2023-04-25T00:30:12;100931.41;;;11.68;94.77
75359;BME280;64046;51.978;5.934;2023-04-25T00:32:41;100937.28;;;11.54;94.39
75359;BME280;64046;51.978;5.934;2023-04-25T00:35:12;100926.94;;;11.51;94.35
75359;BME280;64046;51.978;5.934;2023-04-25T00:37:41;100935.59;;;11.53;94.09
75359;BME280;64046;51.978;5.934;2023-04-25T00:40:13;100935.31;;;11.59;93.96
75359;BME280;64046;51.978;5.934;2023-04-25T00:42:42;100937.22;;;11.56;93.55
75359;BME280;64046;51.978;5.934;2023-04-25T00:45:13;100934.84;;;11.69;93.39
75359;BME280;64046;51.978;5.934;2023-04-25T00:47:43;100946.03;;;11.55;93.46
75359;BME280;64046;51.978;5.934;2023-04-25T00:50:13;100947.44;;;11.62;93.45
75359;BME280;64046;51.978;5.934;2023-04-25T00:52:44;100936.66;;;11.68;93.38
75359;BME280;64046;51.978;5.934;2023-04-25T00:55:16;100948.56;;;11.75;93.05
75359;BME280;64046;51.978;5.934;2023-04-25T00:57:45;100943.25;;;11.58;93.64
75359;BME280;64046;51.978;5.934;2023-04-25T01:00:15;100944.03;;;11.60;93.91
75359;BME280;64046;51.978;5.934;2023-04-25T01:02:45;100941.41;;;11.60;94.58
75359;BME280;64046;51.978;5.934;2023-04-25T01:05:15;100942.69;;;11.51;94.93
75359;BME280;64046;51.978;5.934;2023-04-25T01:07:45;100934.94;;;11.48;95.42
75359;BME280;64046;51.978;5.934;2023-04-25T01:10:17;100940.56;;;11.59;95.58
75359;BME280;64046;51.978;5.934;2023-04-25T01:12:46;100940.34;;;11.45;96.01
75359;BME280;64046;51.978;5.934;2023-04-25T01:15:16;100952.75;;;11.41;96.28
75359;BME280;64046;51.978;5.934;2023-04-25T01:17:45;100955.44;;;11.40;96.58
75359;BME280;64046;51.978;5.934;2023-04-25T01:20:15;100947.06;;;11.32;97.17
75359;BME280;64046;51.978;5.934;2023-04-25T01:22:47;100952.59;;;11.45;97.09
75359;BME280;64046;51.978;5.934;2023-04-25T01:25:17;100951.31;;;11.34;97.30
75359;BME280;64046;51.978;5.934;2023-04-25T01:27:46;100952.50;;;11.27;97.48
75359;BME280;64046;51.978;5.934;2023-04-25T01:30:16;100951.81;;;11.23;97.65
75359;BME280;64046;51.978;5.934;2023-04-25T01:32:47;100958.34;;;11.34;97.64
75359;BME280;64046;51.978;5.934;2023-04-25T01:35:17;100963.22;;;11.22;97.90
75359;BME280;64046;51.978;5.934;2023-04-25T01:37:48;100962.47;;;11.39;97.35
75359;BME280;64046;51.978;5.934;2023-04-25T01:40:18;100954.28;;;11.27;97.78
75359;BME280;64046;51.978;5.934;2023-04-25T01:42:51;100959.25;;;11.33;97.43
75359;BME280;64046;51.978;5.934;2023-04-25T01:45:20;100961.50;;;11.21;97.40
75359;BME280;64046;51.978;5.934;2023-04-25T01:47:51;100959.16;;;11.15;97.26
75359;BME280;64046;51.978;5.934;2023-04-25T01:50:20;100960.28;;;11.10;96.94
75359;BME280;64046;51.978;5.934;2023-04-25T01:52:52;100961.38;;;11.24;96.52
75359;BME280;64046;51.978;5.934;2023-04-25T01:55:22;100964.69;;;11.09;96.39
75359;BME280;64046;51.978;5.934;2023-04-25T01:57:58;100975.03;;;11.12;95.73
75359;BME280;64046;51.978;5.934;2023-04-25T02:00:44;100970.72;;;11.11;95.07
75359;BME280;64046;51.978;5.934;2023-04-25T02:03:14;100974.97;;;11.14;94.49
75359;BME280;64046;51.978;5.934;2023-04-25T02:05:43;100983.97;;;11.08;94.30
75359;BME280;64046;51.978;5.934;2023-04-25T02:08:17;100976.13;;;11.27;93.86
75359;BME280;64046;51.978;5.934;2023-04-25T02:10:46;100989.97;;;11.10;93.42
75359;BME280;64046;51.978;5.934;2023-04-25T02:13:19;100988.22;;;11.11;93.68
75359;BME280;64046;51.978;5.934;2023-04-25T02:16:08;100994.25;;;11.13;93.21
75359;BME280;64046;51.978;5.934;2023-04-25T02:18:38;100992.44;;;11.15;92.85
75359;BME280;64046;51.978;5.934;2023-04-25T02:21:07;100989.72;;;11.16;92.79
75359;BME280;64046;51.978;5.934;2023-04-25T02:23:40;100986.47;;;11.30;92.29
75359;BME280;64046;51.978;5.934;2023-04-25T02:26:09;100992.59;;;11.10;92.27
75359;BME280;64046;51.978;5.934;2023-04-25T02:28:39;100991.75;;;11.10;92.38
75359;BME280;64046;51.978;5.934;2023-04-25T02:31:08;100991.00;;;11.07;92.32
75359;BME280;64046;51.978;5.934;2023-04-25T02:33:37;100993.47;;;11.11;91.83
75359;BME280;64046;51.978;5.934;2023-04-25T02:36:07;100995.22;;;11.10;91.67
75359;BME280;64046;51.978;5.934;2023-04-25T02:38:36;100993.78;;;11.03;91.81
75359;BME280;64046;51.978;5.934;2023-04-25T02:41:08;101003.69;;;11.17;91.08
75359;BME280;64046;51.978;5.934;2023-04-25T02:43:37;101002.69;;;10.99;90.82
75359;BME280;64046;51.978;5.934;2023-04-25T02:46:06;100996.88;;;10.92;90.96
75359;BME280;64046;51.978;5.934;2023-04-25T02:48:35;100995.91;;;10.95;90.48
75359;BME280;64046;51.978;5.934;2023-04-25T02:51:04;100997.53;;;10.97;89.54
75359;BME280;64046;51.978;5.934;2023-04-25T02:53:34;101001.25;;;10.91;89.10
75359;BME280;64046;51.978;5.934;2023-04-25T02:56:03;101000.69;;;10.85;89.65
75359;BME280;64046;51.978;5.934;2023-04-25T02:58:35;100997.66;;;10.94;89.38
75359;BME280;64046;51.978;5.934;2023-04-25T03:01:04;100999.94;;;10.81;89.09
75359;BME280;64046;51.978;5.934;2023-04-25T03:03:33;101002.56;;;10.81;88.64
75359;BME280;64046;51.978;5.934;2023-04-25T03:06:03;100998.78;;;10.88;88.36
75359;BME280;64046;51.978;5.934;2023-04-25T03:08:33;100996.44;;;10.82;87.91
75359;BME280;64046;51.978;5.934;2023-04-25T03:11:05;101001.88;;;10.78;87.59
75359;BME280;64046;51.978;5.934;2023-04-25T03:13:37;100991.97;;;10.84;87.85
75359;BME280;64046;51.978;5.934;2023-04-25T03:16:08;101002.00;;;10.75;87.86
75359;BME280;64046;51.978;5.934;2023-04-25T03:18:37;101003.75;;;10.74;87.83
75359;BME280;64046;51.978;5.934;2023-04-25T03:21:07;101007.88;;;10.80;87.54
75359;BME280;64046;51.978;5.934;2023-04-25T03:23:36;101007.81;;;10.81;87.24
75359;BME280;64046;51.978;5.934;2023-04-25T03:26:05;101007.88;;;10.80;87.10
75359;BME280;64046;51.978;5.934;2023-04-25T03:28:37;101018.69;;;10.93;86.74
75359;BME280;64046;51.978;5.934;2023-04-25T03:31:07;101022.09;;;10.74;87.10
75359;BME280;64046;51.978;5.934;2023-04-25T03:33:36;101018.56;;;10.75;87.32
75359;BME280;64046;51.978;5.934;2023-04-25T03:36:06;101009.47;;;10.84;87.42
75359;BME280;64046;51.978;5.934;2023-04-25T03:38:36;101009.59;;;10.81;87.35
75359;BME280;64046;51.978;5.934;2023-04-25T03:41:07;101011.31;;;10.82;87.26
75359;BME280;64046;51.978;5.934;2023-04-25T03:43:49;101014.13;;;10.98;86.88
75359;BME280;64046;51.978;5.934;2023-04-25T03:46:18;101019.28;;;10.79;87.21
75359;BME280;64046;51.978;5.934;2023-04-25T03:48:48;101023.69;;;10.78;87.17
75359;BME280;64046;51.978;5.934;2023-04-25T03:51:21;101020.22;;;10.78;87.10
75359;BME280;64046;51.978;5.934;2023-04-25T03:53:51;101020.09;;;10.81;87.24
75359;BME280;64046;51.978;5.934;2023-04-25T03:56:53;101028.09;;;10.78;86.98
75359;BME280;64046;51.978;5.934;2023-04-25T03:59:28;101025.88;;;10.89;86.79
75359;BME280;64046;51.978;5.934;2023-04-25T04:01:57;101021.31;;;10.72;87.20
75359;BME280;64046;51.978;5.934;2023-04-25T04:04:27;101027.47;;;10.71;86.81
75359;BME280;64046;51.978;5.934;2023-04-25T04:06:56;101023.94;;;10.72;86.85
75359;BME280;64046;51.978;5.934;2023-04-25T04:09:28;101030.16;;;10.69;86.62
75359;BME280;64046;51.978;5.934;2023-04-25T04:11:59;101039.06;;;10.65;86.82
75359;BME280;64046;51.978;5.934;2023-04-25T04:14:33;101033.00;;;10.85;86.47
75359;BME280;64046;51.978;5.934;2023-04-25T04:17:02;101046.72;;;10.70;86.53
75359;BME280;64046;51.978;5.934;2023-04-25T04:19:32;101045.22;;;10.64;86.59
75359;BME280;64046;51.978;5.934;2023-04-25T04:22:14;101047.19;;;10.59;86.84
75359;BME280;64046;51.978;5.934;2023-04-25T04:24:43;101040.63;;;10.49;87.18
75359;BME280;64046;51.978;5.934;2023-04-25T04:27:16;101046.03;;;10.44;87.39
75359;BME280;64046;51.978;5.934;2023-04-25T04:29:54;101053.34;;;10.58;87.30
75359;BME280;64046;51.978;5.934;2023-04-25T04:32:29;101053.09;;;10.42;87.14
75359;BME280;64046;51.978;5.934;2023-04-25T04:35:00;101057.59;;;10.38;87.29
75359;BME280;64046;51.978;5.934;2023-04-25T04:37:30;101062.13;;;10.35;87.32
75359;BME280;64046;51.978;5.934;2023-04-25T04:40:00;101057.03;;;10.30;87.36
75359;BME280;64046;51.978;5.934;2023-04-25T04:42:45;101057.94;;;10.29;87.16
75359;BME280;64046;51.978;5.934;2023-04-25T04:45:49;101067.03;;;10.43;86.81
75359;BME280;64046;51.978;5.934;2023-04-25T04:48:36;101070.34;;;10.24;87.01
75359;BME280;64046;51.978;5.934;2023-04-25T04:51:20;101076.53;;;10.23;86.94
75359;BME280;64046;51.978;5.934;2023-04-25T04:54:02;101079.06;;;10.25;86.85
75359;BME280;64046;51.978;5.934;2023-04-25T04:57:09;101079.84;;;10.27;86.34
75359;BME280;64046;51.978;5.934;2023-04-25T04:59:57;101088.88;;;10.19;85.89
75359;BME280;64046;51.978;5.934;2023-04-25T05:02:52;101105.88;;;10.31;86.06
75359;BME280;64046;51.978;5.934;2023-04-25T05:05:30;101106.56;;;10.13;86.27
75359;BME280;64046;51.978;5.934;2023-04-25T05:08:15;101107.56;;;10.10;86.70
75359;BME280;64046;51.978;5.934;2023-04-25T05:11:05;101115.47;;;10.09;86.91
75359;BME280;64046;51.978;5.934;2023-04-25T05:13:53;101111.97;;;10.08;87.12
75359;BME280;64046;51.978;5.934;2023-04-25T05:16:45;101111.19;;;10.06;87.54
75359;BME280;64046;51.978;5.934;2023-04-25T05:19:39;101109.69;;;10.22;87.28
75359;BME280;64046;51.978;5.934;2023-04-25T05:22:17;101128.56;;;10.09;87.48
75359;BME280;64046;51.978;5.934;2023-04-25T05:25:15;101129.41;;;10.09;87.62
75359;BME280;64046;51.978;5.934;2023-04-25T05:28:06;101129.28;;;10.12;87.53
75359;BME280;64046;51.978;5.934;2023-04-25T05:30:44;101136.97;;;10.17;87.28
75359;BME280;64046;51.978;5.934;2023-04-25T05:33:19;101134.13;;;10.23;87.10
75359;BME280;64046;51.978;5.934;2023-04-25T05:35:51;101135.22;;;10.41;86.50
75359;BME280;64046;51.978;5.934;2023-04-25T05:38:21;101139.06;;;10.31;86.73
75359;BME280;64046;51.978;5.934;2023-04-25T05:41:09;101134.50;;;10.37;86.37
75359;BME280;64046;51.978;5.934;2023-04-25T05:43:42;101143.19;;;10.38;86.08
75359;BME280;64046;51.978;5.934;2023-04-25T05:46:36;101149.06;;;10.45;85.64
75359;BME280;64046;51.978;5.934;2023-04-25T05:49:23;101141.25;;;10.43;85.56
75359;BME280;64046;51.978;5.934;2023-04-25T05:52:00;101149.97;;;10.66;85.35
75359;BME280;64046;51.978;5.934;2023-04-25T05:54:44;101155.31;;;10.41;85.74
75359;BME280;64046;51.978;5.934;2023-04-25T05:57:21;101158.78;;;10.65;85.29
75359;BME280;64046;51.978;5.934;2023-04-25T05:59:51;101169.09;;;10.46;85.70
75359;BME280;64046;51.978;5.934;2023-04-25T06:02:21;101168.06;;;10.50;85.40
75359;BME280;64046;51.978;5.934;2023-04-25T06:04:51;101178.28;;;10.58;85.18
75359;BME280;64046;51.978;5.934;2023-04-25T06:07:24;101185.63;;;10.70;84.99
75359;BME280;64046;51.978;5.934;2023-04-25T06:09:53;101180.19;;;10.52;85.07
75359;BME280;64046;51.978;5.934;2023-04-25T06:12:23;101183.72;;;10.51;85.19
75359;BME280;64046;51.978;5.934;2023-04-25T06:14:52;101183.66;;;10.53;85.20
75359;BME280;64046;51.978;5.934;2023-04-25T06:17:21;101186.06;;;10.59;84.83
75359;BME280;64046;51.978;5.934;2023-04-25T06:19:51;101194.59;;;10.64;84.31
75359;BME280;64046;51.978;5.934;2023-04-25T06:22:20;101189.13;;;10.70;83.90
75359;BME280;64046;51.978;5.934;2023-04-25T06:24:53;101185.47;;;10.97;83.06
75359;BME280;64046;51.978;5.934;2023-04-25T06:27:23;101192.91;;;10.85;83.18
75359;BME280;64046;51.978;5.934;2023-04-25T06:29:52;101195.00;;;10.99;82.85
75359;BME280;64046;51.978;5.934;2023-04-25T06:32:21;101193.63;;;11.11;82.32
75359;BME280;64046;51.978;5.934;2023-04-25T06:34:51;101191.63;;;11.18;81.66
75359;BME280;64046;51.978;5.934;2023-04-25T06:37:21;101193.22;;;11.22;81.75
75359;BME280;64046;51.978;5.934;2023-04-25T06:39:54;101191.44;;;11.43;81.18
75359;BME280;64046;51.978;5.934;2023-04-25T06:42:23;101197.09;;;11.34;81.00
75359;BME280;64046;51.978;5.934;2023-04-25T06:44:57;101192.63;;;11.36;80.50
75359;BME280;64046;51.978;5.934;2023-04-25T06:47:28;101201.88;;;11.45;80.09
75359;BME280;64046;51.978;5.934;2023-04-25T06:49:59;101201.88;;;11.45;79.42
75359;BME280;64046;51.978;5.934;2023-04-25T06:52:30;101196.91;;;11.59;79.29
75359;BME280;64046;51.978;5.934;2023-04-25T06:55:01;101198.34;;;11.87;78.66
75359;BME280;64046;51.978;5.934;2023-04-25T06:57:48;101202.22;;;11.78;78.20
75359;BME280;64046;51.978;5.934;2023-04-25T07:00:37;101205.78;;;11.77;77.88
75359;BME280;64046;51.978;5.934;2023-04-25T07:03:06;101210.19;;;11.76;77.81
75359;BME280;64046;51.978;5.934;2023-04-25T07:05:35;101213.56;;;11.78;77.64
75359;BME280;64046;51.978;5.934;2023-04-25T07:08:05;101210.88;;;11.80;77.75
75359;BME280;64046;51.978;5.934;2023-04-25T07:10:36;101212.66;;;12.00;77.33
75359;BME280;64046;51.978;5.934;2023-04-25T07:13:06;101214.25;;;11.84;77.34
75359;BME280;64046;51.978;5.934;2023-04-25T07:15:36;101215.09;;;11.84;77.49
75359;BME280;64046;51.978;5.934;2023-04-25T07:18:06;101232.78;;;12.01;76.82
75359;BME280;64046;51.978;5.934;2023-04-25T07:20:35;101230.31;;;12.17;76.21
75359;BME280;64046;51.978;5.934;2023-04-25T07:23:04;101227.31;;;12.26;75.25
75359;BME280;64046;51.978;5.934;2023-04-25T07:25:36;101223.69;;;12.48;74.50
75359;BME280;64046;51.978;5.934;2023-04-25T07:28:05;101233.47;;;12.44;74.23
75359;BME280;64046;51.978;5.934;2023-04-25T07:30:35;101226.88;;;12.55;73.92
75359;BME280;64046;51.978;5.934;2023-04-25T07:33:05;101231.22;;;12.75;73.47
75359;BME280;64046;51.978;5.934;2023-04-25T07:35:34;101235.69;;;12.92;72.29
75359;BME280;64046;51.978;5.934;2023-04-25T07:38:03;101243.50;;;12.93;71.57
75359;BME280;64046;51.978;5.934;2023-04-25T07:40:32;101237.25;;;12.96;71.32
75359;BME280;64046;51.978;5.934;2023-04-25T07:43:08;101240.78;;;13.14;70.96
75359;BME280;64046;51.978;5.934;2023-04-25T07:45:48;101241.53;;;13.16;70.17
75359;BME280;64046;51.978;5.934;2023-04-25T07:48:19;101258.63;;;13.07;68.40
75359;BME280;64046;51.978;5.934;2023-04-25T07:50:51;101238.81;;;13.00;67.31
75359;BME280;64046;51.978;5.934;2023-04-25T07:53:21;101244.00;;;13.02;66.88
75359;BME280;64046;51.978;5.934;2023-04-25T07:55:58;101251.81;;;13.03;65.60
75359;BME280;64046;51.978;5.934;2023-04-25T07:58:33;101256.50;;;13.15;64.63
75359;BME280;64046;51.978;5.934;2023-04-25T08:01:04;101255.00;;;12.91;63.52
75359;BME280;64046;51.978;5.934;2023-04-25T08:03:51;101256.56;;;12.95;63.24
75359;BME280;64046;51.978;5.934;2023-04-25T08:06:35;101278.19;;;13.02;62.37
75359;BME280;64046;51.978;5.934;2023-04-25T08:09:09;101274.06;;;12.96;61.36
75359;BME280;64046;51.978;5.934;2023-04-25T08:11:41;101288.06;;;12.96;61.38
75359;BME280;64046;51.978;5.934;2023-04-25T08:14:15;101272.19;;;13.17;61.12
75359;BME280;64046;51.978;5.934;2023-04-25T08:16:45;101275.69;;;13.18;61.48
75359;BME280;64046;51.978;5.934;2023-04-25T08:19:15;101278.50;;;13.32;60.12
75359;BME280;64046;51.978;5.934;2023-04-25T08:21:45;101277.03;;;13.45;59.92
75359;BME280;64046;51.978;5.934;2023-04-25T08:24:19;101283.53;;;13.73;58.50
75359;BME280;64046;51.978;5.934;2023-04-25T08:26:49;101287.66;;;13.79;56.45
75359;BME280;64046;51.978;5.934;2023-04-25T08:29:23;101282.69;;;13.90;54.00
75359;BME280;64046;51.978;5.934;2023-04-25T08:31:52;101288.81;;;13.73;53.32
75359;BME280;64046;51.978;5.934;2023-04-25T08:34:21;101295.16;;;13.87;52.77
75359;BME280;64046;51.978;5.934;2023-04-25T08:36:52;101291.66;;;14.04;51.78
75359;BME280;64046;51.978;5.934;2023-04-25T08:39:42;101290.81;;;14.03;50.32
75359;BME280;64046;51.978;5.934;2023-04-25T08:42:30;101291.81;;;14.00;49.28
75359;BME280;64046;51.978;5.934;2023-04-25T08:45:04;101309.56;;;13.97;49.28
75359;BME280;64046;51.978;5.934;2023-04-25T08:47:38;101319.25;;;13.79;50.05
75359;BME280;64046;51.978;5.934;2023-04-25T08:50:08;101320.31;;;13.57;49.79
75359;BME280;64046;51.978;5.934;2023-04-25T08:52:43;101320.09;;;13.62;49.84
75359;BME280;64046;51.978;5.934;2023-04-25T08:55:13;101327.03;;;13.45;49.64
75359;BME280;64046;51.978;5.934;2023-04-25T08:57:43;101320.13;;;13.43;49.06
75359;BME280;64046;51.978;5.934;2023-04-25T09:00:17;101328.28;;;13.56;49.11
75359;BME280;64046;51.978;5.934;2023-04-25T09:02:47;101332.72;;;13.36;49.57
75359;BME280;64046;51.978;5.934;2023-04-25T09:05:17;101337.50;;;13.47;50.11
75359;BME280;64046;51.978;5.934;2023-04-25T09:07:47;101345.06;;;13.36;50.44
75359;BME280;64046;51.978;5.934;2023-04-25T09:10:16;101351.28;;;13.33;50.93
75359;BME280;64046;51.978;5.934;2023-04-25T09:13:01;101361.88;;;13.50;50.97
75359;BME280;64046;51.978;5.934;2023-04-25T09:15:46;101364.16;;;13.39;50.37
75359;BME280;64046;51.978;5.934;2023-04-25T09:18:31;101367.63;;;13.21;50.98
75359;BME280;64046;51.978;5.934;2023-04-25T09:21:05;101366.16;;;13.34;50.89
75359;BME280;64046;51.978;5.934;2023-04-25T09:23:46;101376.56;;;13.37;49.54
75359;BME280;64046;51.978;5.934;2023-04-25T09:26:16;101369.56;;;13.17;49.79
75359;BME280;64046;51.978;5.934;2023-04-25T09:28:46;101361.66;;;13.17;49.42
75359;BME280;64046;51.978;5.934;2023-04-25T09:31:24;101378.41;;;13.35;48.51
75359;BME280;64046;51.978;5.934;2023-04-25T09:33:59;101381.50;;;13.24;48.84
75359;BME280;64046;51.978;5.934;2023-04-25T09:36:34;101378.22;;;13.19;48.99
75359;BME280;64046;51.978;5.934;2023-04-25T09:39:18;101388.03;;;12.96;49.49
75359;BME280;64046;51.978;5.934;2023-04-25T09:41:56;101374.69;;;13.01;49.47
75359;BME280;64046;51.978;5.934;2023-04-25T09:44:25;101388.16;;;12.93;49.62
75359;BME280;64046;51.978;5.934;2023-04-25T09:46:58;101393.75;;;13.25;48.85
75359;BME280;64046;51.978;5.934;2023-04-25T09:49:30;101389.13;;;13.30;48.53
75359;BME280;64046;51.978;5.934;2023-04-25T09:52:04;101396.19;;;13.49;48.17
75359;BME280;64046;51.978;5.934;2023-04-25T09:54:47;101404.91;;;13.69;47.99
75359;BME280;64046;51.978;5.934;2023-04-25T09:57:24;101394.09;;;13.75;47.65
75359;BME280;64046;51.978;5.934;2023-04-25T09:59:56;101391.03;;;13.84;47.16
75359;BME280;64046;51.978;5.934;2023-04-25T10:02:33;101387.25;;;14.07;46.93
75359;BME280;64046;51.978;5.934;2023-04-25T10:05:08;101394.06;;;14.11;46.74
75359;BME280;64046;51.978;5.934;2023-04-25T10:07:39;101388.84;;;14.10;46.51
75359;BME280;64046;51.978;5.934;2023-04-25T10:10:14;101386.31;;;14.26;45.52
75359;BME280;64046;51.978;5.934;2023-04-25T10:12:45;101387.72;;;14.33;44.02
75359;BME280;64046;51.978;5.934;2023-04-25T10:15:15;101394.34;;;14.23;44.11
75359;BME280;64046;51.978;5.934;2023-04-25T10:17:47;101396.38;;;14.35;43.89
75359;BME280;64046;51.978;5.934;2023-04-25T10:20:18;101408.56;;;14.20;43.67
75359;BME280;64046;51.978;5.934;2023-04-25T10:22:48;101405.94;;;14.20;43.67
75359;BME280;64046;51.978;5.934;2023-04-25T10:25:20;101405.13;;;14.18;43.63
75359;BME280;64046;51.978;5.934;2023-04-25T10:27:50;101407.16;;;14.13;43.66
75359;BME280;64046;51.978;5.934;2023-04-25T10:30:19;101405.03;;;14.02;43.56
75359;BME280;64046;51.978;5.934;2023-04-25T10:32:54;101408.41;;;14.23;42.33
75359;BME280;64046;51.978;5.934;2023-04-25T10:35:25;101410.41;;;14.00;42.38
75359;BME280;64046;51.978;5.934;2023-04-25T10:38:03;101418.22;;;14.02;42.19
75359;BME280;64046;51.978;5.934;2023-04-25T10:40:33;101427.81;;;13.66;43.01
75359;BME280;64046;51.978;5.934;2023-04-25T10:43:35;101441.41;;;13.76;43.96
75359;BME280;64046;51.978;5.934;2023-04-25T10:46:18;101443.84;;;13.62;45.25
75359;BME280;64046;51.978;5.934;2023-04-25T10:48:51;101426.78;;;13.52;46.79
75359;BME280;64046;51.978;5.934;2023-04-25T10:51:22;101438.44;;;13.46;48.44
75359;BME280;64046;51.978;5.934;2023-04-25T10:53:58;101441.44;;;13.57;49.29
75359;BME280;64046;51.978;5.934;2023-04-25T10:56:29;101436.13;;;13.40;50.17
75359;BME280;64046;51.978;5.934;2023-04-25T10:59:06;101443.16;;;13.58;50.20
75359;BME280;64046;51.978;5.934;2023-04-25T11:01:37;101446.56;;;13.41;50.27
75359;BME280;64046;51.978;5.934;2023-04-25T11:04:22;101449.63;;;13.51;49.71
75359;BME280;64046;51.978;5.934;2023-04-25T11:07:00;101436.41;;;13.53;50.05
75359;BME280;64046;51.978;5.934;2023-04-25T11:09:32;101440.09;;;13.48;49.98
75359;BME280;64046;51.978;5.934;2023-04-25T11:12:01;101441.94;;;13.46;49.59
75359;BME280;64046;51.978;5.934;2023-04-25T11:14:31;101442.59;;;13.52;48.85
75359;BME280;64046;51.978;5.934;2023-04-25T11:17:00;101449.13;;;13.62;48.11
75359;BME280;64046;51.978;5.934;2023-04-25T11:19:32;101439.94;;;13.71;48.13
75359;BME280;64046;51.978;5.934;2023-04-25T11:22:02;101436.72;;;13.64;48.29
75359;BME280;64046;51.978;5.934;2023-04-25T11:24:33;101439.00;;;13.72;48.27
75359;BME280;64046;51.978;5.934;2023-04-25T11:27:03;101430.88;;;13.76;48.48
75359;BME280;64046;51.978;5.934;2023-04-25T11:29:34;101443.63;;;13.86;47.43
75359;BME280;64046;51.978;5.934;2023-04-25T11:32:04;101433.66;;;13.73;46.12
75359;BME280;64046;51.978;5.934;2023-04-25T11:34:35;101433.63;;;13.92;45.44
75359;BME280;64046;51.978;5.934;2023-04-25T11:37:04;101429.22;;;13.93;45.10
75359;BME280;64046;51.978;5.934;2023-04-25T11:39:34;101426.13;;;14.19;44.61
75359;BME280;64046;51.978;5.934;2023-04-25T11:42:04;101428.41;;;14.45;43.44
75359;BME280;64046;51.978;5.934;2023-04-25T11:44:33;101438.56;;;14.35;41.78
75359;BME280;64046;51.978;5.934;2023-04-25T11:47:02;101443.19;;;14.30;41.22
75359;BME280;64046;51.978;5.934;2023-04-25T11:49:31;101431.13;;;14.26;41.09
75359;BME280;64046;51.978;5.934;2023-04-25T11:52:06;101439.13;;;14.42;40.72
75359;BME280;64046;51.978;5.934;2023-04-25T11:54:36;101447.31;;;14.35;41.02
75359;BME280;64046;51.978;5.934;2023-04-25T11:57:05;101446.72;;;14.30;40.89
75359;BME280;64046;51.978;5.934;2023-04-25T11:59:34;101438.00;;;14.28;41.18
75359;BME280;64046;51.978;5.934;2023-04-25T12:02:04;101440.28;;;14.36;40.85
75359;BME280;64046;51.978;5.934;2023-04-25T12:04:33;101443.31;;;14.46;41.00
75359;BME280;64046;51.978;5.934;2023-04-25T12:07:04;101442.75;;;14.74;40.62
75359;BME280;64046;51.978;5.934;2023-04-25T12:09:33;101453.00;;;14.63;40.21
75359;BME280;64046;51.978;5.934;2023-04-25T12:12:03;101447.69;;;14.64;40.10
75359;BME280;64046;51.978;5.934;2023-04-25T12:14:34;101455.28;;;14.70;40.12
75359;BME280;64046;51.978;5.934;2023-04-25T12:17:04;101470.38;;;14.49;41.41
75359;BME280;64046;51.978;5.934;2023-04-25T12:19:35;101472.09;;;14.14;42.88
75359;BME280;64046;51.978;5.934;2023-04-25T12:22:19;101474.28;;;14.06;43.77
75359;BME280;64046;51.978;5.934;2023-04-25T12:24:50;101477.31;;;13.79;44.63
75359;BME280;64046;51.978;5.934;2023-04-25T12:27:20;101481.44;;;13.65;45.05
75359;BME280;64046;51.978;5.934;2023-04-25T12:29:53;101482.72;;;13.76;45.16
75359;BME280;64046;51.978;5.934;2023-04-25T12:32:22;101491.25;;;13.43;45.65
75359;BME280;64046;51.978;5.934;2023-04-25T12:34:52;101492.56;;;13.32;46.09
75359;BME280;64046;51.978;5.934;2023-04-25T12:37:24;101492.91;;;13.45;46.41
75359;BME280;64046;51.978;5.934;2023-04-25T12:39:53;101501.28;;;13.35;45.82
75359;BME280;64046;51.978;5.934;2023-04-25T12:42:22;101500.97;;;13.41;45.41
75359;BME280;64046;51.978;5.934;2023-04-25T12:44:51;101497.38;;;13.43;45.40
75359;BME280;64046;51.978;5.934;2023-04-25T12:47:20;101495.53;;;13.45;45.59
75359;BME280;64046;51.978;5.934;2023-04-25T12:49:49;101494.44;;;13.49;45.59
75359;BME280;64046;51.978;5.934;2023-04-25T12:52:18;101495.25;;;13.52;45.70
75359;BME280;64046;51.978;5.934;2023-04-25T12:54:50;101492.44;;;13.74;46.02
75359;BME280;64046;51.978;5.934;2023-04-25T12:57:19;101500.06;;;13.61;46.00
75359;BME280;64046;51.978;5.934;2023-04-25T12:59:49;101495.53;;;13.64;46.30
75359;BME280;64046;51.978;5.934;2023-04-25T13:02:19;101488.22;;;13.71;46.18
75359;BME280;64046;51.978;5.934;2023-04-25T13:04:48;101483.56;;;13.76;46.08
75359;BME280;64046;51.978;5.934;2023-04-25T13:07:17;101491.81;;;13.88;45.82
75359;BME280;64046;51.978;5.934;2023-04-25T13:09:46;101488.81;;;13.95;44.95
75359;BME280;64046;51.978;5.934;2023-04-25T13:12:18;101492.75;;;14.23;44.67
75359;BME280;64046;51.978;5.934;2023-04-25T13:14:47;101498.09;;;14.22;44.56
75359;BME280;64046;51.978;5.934;2023-04-25T13:17:16;101495.50;;;14.39;44.27
75359;BME280;64046;51.978;5.934;2023-04-25T13:19:45;101485.25;;;14.50;44.17